sensor_id;sensor_type;location;lat;lon;timestamp;P1;durP1;ratioP1;P2;durP2;ratioP2
65665;SDS011;52365;47.464;18.976;2023-08-08T00:00:00;1.50;;;0.40;;
65665;SDS011;52365;47.464;18.976;2023-08-08T00:00:21;0.98;;;0.43;;
65665;SDS011;52365;47.464;18.976;2023-08-08T00:00:42;0.57;;;0.32;;
65665;SDS011;52365;47.464;18.976;2023-08-08T00:01:03;0.77;;;0.40;;
65665;SDS011;52365;47.464;18.976;2023-08-08T00:01:24;0.95;;;0.45;;
65665;SDS011;52365;47.464;18.976;2023-08-08T00:01:45;0.82;;;0.43;;
65665;SDS011;52365;47.464;18.976;2023-08-08T00:02:06;1.23;;;0.50;;
65665;SDS011;52365;47.464;18.976;2023-08-08T00:02:27;1.60;;;0.60;;
65665;SDS011;52365;47.464;18.976;2023-08-08T00:02:48;0.57;;;0.40;;
65665;SDS011;52365;47.464;18.976;2023-08-08T00:03:09;0.82;;;0.43;;
65665;SDS011;52365;47.464;18.976;2023-08-08T00:03:30;0.77;;;0.40;;
65665;SDS011;52365;47.464;18.976;2023-08-08T00:03:51;0.70;;;0.40;;
65665;SDS011;52365;47.464;18.976;2023-08-08T00:04:07;0.90;;;0.40;;
65665;SDS011;52365;47.464;18.976;2023-08-08T00:04:28;0.57;;;0.37;;
65665;SDS011;52365;47.464;18.976;2023-08-08T00:04:49;0.70;;;0.40;;
65665;SDS011;52365;47.464;18.976;2023-08-08T00:05:11;0.90;;;0.40;;
65665;SDS011;52365;47.464;18.976;2023-08-08T00:05:32;0.62;;;0.30;;
65665;SDS011;52365;47.464;18.976;2023-08-08T00:05:53;1.27;;;0.40;;
65665;SDS011;52365;47.464;18.976;2023-08-08T00:06:14;1.10;;;0.45;;
65665;SDS011;52365;47.464;18.976;2023-08-08T00:06:35;1.08;;;0.40;;
65665;SDS011;52365;47.464;18.976;2023-08-08T00:06:57;0.98;;;0.43;;
65665;SDS011;52365;47.464;18.976;2023-08-08T00:07:18;0.80;;;0.40;;
65665;SDS011;52365;47.464;18.976;2023-08-08T00:07:39;0.80;;;0.30;;
65665;SDS011;52365;47.464;18.976;2023-08-08T00:08:00;1.42;;;0.40;;
65665;SDS011;52365;47.464;18.976;2023-08-08T00:08:21;1.10;;;0.37;;
65665;SDS011;52365;47.464;18.976;2023-08-08T00:08:42;1.73;;;0.60;;
65665;SDS011;52365;47.464;18.976;2023-08-08T00:09:03;0.60;;;0.40;;
65665;SDS011;52365;47.464;18.976;2023-08-08T00:09:24;0.68;;;0.40;;
65665;SDS011;52365;47.464;18.976;2023-08-08T00:09:45;0.60;;;0.40;;
65665;SDS011;52365;47.464;18.976;2023-08-08T00:10:06;0.70;;;0.40;;
65665;SDS011;52365;47.464;18.976;2023-08-08T00:10:28;1.02;;;0.40;;
65665;SDS011;52365;47.464;18.976;2023-08-08T00:10:49;2.60;;;0.50;;
65665;SDS011;52365;47.464;18.976;2023-08-08T00:11:10;1.15;;;0.55;;
65665;SDS011;52365;47.464;18.976;2023-08-08T00:11:31;0.90;;;0.50;;
65665;SDS011;52365;47.464;18.976;2023-08-08T00:11:52;1.40;;;0.47;;
65665;SDS011;52365;47.464;18.976;2023-08-08T00:12:13;1.12;;;0.40;;
65665;SDS011;52365;47.464;18.976;2023-08-08T00:12:34;2.30;;;0.50;;
65665;SDS011;52365;47.464;18.976;2023-08-08T00:12:55;0.75;;;0.40;;
65665;SDS011;52365;47.464;18.976;2023-08-08T00:13:16;0.60;;;0.40;;
65665;SDS011;52365;47.464;18.976;2023-08-08T00:13:37;0.77;;;0.40;;
65665;SDS011;52365;47.464;18.976;2023-08-08T00:13:58;1.20;;;0.50;;
65665;SDS011;52365;47.464;18.976;2023-08-08T00:14:19;1.40;;;0.40;;
65665;SDS011;52365;47.464;18.976;2023-08-08T00:14:40;0.90;;;0.45;;
65665;SDS011;52365;47.464;18.976;2023-08-08T00:15:01;1.30;;;0.50;;
65665;SDS011;52365;47.464;18.976;2023-08-08T00:15:22;1.70;;;0.50;;
65665;SDS011;52365;47.464;18.976;2023-08-08T00:15:43;0.55;;;0.40;;
65665;SDS011;52365;47.464;18.976;2023-08-08T00:16:04;0.77;;;0.40;;
65665;SDS011;52365;47.464;18.976;2023-08-08T00:16:25;1.35;;;0.50;;
65665;SDS011;52365;47.464;18.976;2023-08-08T00:16:46;1.45;;;0.50;;
65665;SDS011;52365;47.464;18.976;2023-08-08T00:17:07;1.23;;;0.50;;
65665;SDS011;52365;47.464;18.976;2023-08-08T00:17:28;1.10;;;0.43;;
65665;SDS011;52365;47.464;18.976;2023-08-08T00:17:49;0.98;;;0.40;;
65665;SDS011;52365;47.464;18.976;2023-08-08T00:18:10;0.60;;;0.50;;
65665;SDS011;52365;47.464;18.976;2023-08-08T00:18:31;1.65;;;0.50;;
65665;SDS011;52365;47.464;18.976;2023-08-08T00:18:52;1.80;;;0.40;;
65665;SDS011;52365;47.464;18.976;2023-08-08T00:19:14;1.20;;;0.40;;
65665;SDS011;52365;47.464;18.976;2023-08-08T00:19:35;1.48;;;0.40;;
65665;SDS011;52365;47.464;18.976;2023-08-08T00:19:56;2.00;;;0.50;;
65665;SDS011;52365;47.464;18.976;2023-08-08T00:20:17;2.12;;;0.50;;
65665;SDS011;52365;47.464;18.976;2023-08-08T00:20:38;1.10;;;0.43;;
65665;SDS011;52365;47.464;18.976;2023-08-08T00:21:00;1.10;;;0.40;;
65665;SDS011;52365;47.464;18.976;2023-08-08T00:21:21;0.85;;;0.50;;
65665;SDS011;52365;47.464;18.976;2023-08-08T00:21:42;1.37;;;0.40;;
65665;SDS011;52365;47.464;18.976;2023-08-08T00:22:03;1.50;;;0.50;;
65665;SDS011;52365;47.464;18.976;2023-08-08T00:22:24;0.52;;;0.40;;
65665;SDS011;52365;47.464;18.976;2023-08-08T00:22:45;1.60;;;0.50;;
65665;SDS011;52365;47.464;18.976;2023-08-08T00:23:06;1.55;;;0.50;;
65665;SDS011;52365;47.464;18.976;2023-08-08T00:23:27;1.00;;;0.50;;
65665;SDS011;52365;47.464;18.976;2023-08-08T00:23:48;1.37;;;0.40;;
65665;SDS011;52365;47.464;18.976;2023-08-08T00:24:09;1.58;;;0.40;;
65665;SDS011;52365;47.464;18.976;2023-08-08T00:24:30;1.80;;;0.47;;
65665;SDS011;52365;47.464;18.976;2023-08-08T00:24:51;1.55;;;0.50;;
65665;SDS011;52365;47.464;18.976;2023-08-08T00:25:12;1.10;;;0.55;;
65665;SDS011;52365;47.464;18.976;2023-08-08T00:25:33;1.30;;;0.60;;
65665;SDS011;52365;47.464;18.976;2023-08-08T00:25:54;1.50;;;0.50;;
65665;SDS011;52365;47.464;18.976;2023-08-08T00:26:15;0.65;;;0.40;;
65665;SDS011;52365;47.464;18.976;2023-08-08T00:26:36;0.80;;;0.43;;
65665;SDS011;52365;47.464;18.976;2023-08-08T00:26:57;0.80;;;0.50;;
65665;SDS011;52365;47.464;18.976;2023-08-08T00:27:18;1.40;;;0.50;;
65665;SDS011;52365;47.464;18.976;2023-08-08T00:27:39;0.70;;;0.43;;
65665;SDS011;52365;47.464;18.976;2023-08-08T00:28:04;1.10;;;0.50;;
65665;SDS011;52365;47.464;18.976;2023-08-08T00:28:25;0.90;;;0.50;;
65665;SDS011;52365;47.464;18.976;2023-08-08T00:28:46;0.60;;;0.40;;
65665;SDS011;52365;47.464;18.976;2023-08-08T00:29:07;0.70;;;0.40;;
65665;SDS011;52365;47.464;18.976;2023-08-08T00:29:28;0.90;;;0.40;;
65665;SDS011;52365;47.464;18.976;2023-08-08T00:29:49;1.00;;;0.45;;
65665;SDS011;52365;47.464;18.976;2023-08-08T00:30:11;1.12;;;0.50;;
65665;SDS011;52365;47.464;18.976;2023-08-08T00:30:33;2.08;;;1.25;;
65665;SDS011;52365;47.464;18.976;2023-08-08T00:30:55;6.30;;;4.75;;
65665;SDS011;52365;47.464;18.976;2023-08-08T00:31:16;18.00;;;12.27;;
65665;SDS011;52365;47.464;18.976;2023-08-08T00:31:40;28.27;;;19.08;;
65665;SDS011;52365;47.464;18.976;2023-08-08T00:32:01;47.88;;;29.87;;
65665;SDS011;52365;47.464;18.976;2023-08-08T00:32:22;31.83;;;20.23;;
65665;SDS011;52365;47.464;18.976;2023-08-08T00:32:43;51.28;;;33.55;;
65665;SDS011;52365;47.464;18.976;2023-08-08T00:33:04;67.18;;;44.67;;
65665;SDS011;52365;47.464;18.976;2023-08-08T00:33:25;23.12;;;15.65;;
65665;SDS011;52365;47.464;18.976;2023-08-08T00:33:46;8.18;;;5.55;;
65665;SDS011;52365;47.464;18.976;2023-08-08T00:34:07;2.35;;;1.55;;
65665;SDS011;52365;47.464;18.976;2023-08-08T00:34:28;1.58;;;0.95;;
65665;SDS011;52365;47.464;18.976;2023-08-08T00:34:49;1.15;;;0.60;;
65665;SDS011;52365;47.464;18.976;2023-08-08T00:35:10;1.23;;;0.50;;
65665;SDS011;52365;47.464;18.976;2023-08-08T00:35:31;1.50;;;0.60;;
65665;SDS011;52365;47.464;18.976;2023-08-08T00:35:52;2.22;;;0.60;;
65665;SDS011;52365;47.464;18.976;2023-08-08T00:36:13;2.40;;;0.57;;
65665;SDS011;52365;47.464;18.976;2023-08-08T00:36:34;0.52;;;0.40;;
65665;SDS011;52365;47.464;18.976;2023-08-08T00:36:55;1.15;;;0.45;;
65665;SDS011;52365;47.464;18.976;2023-08-08T00:37:16;1.23;;;0.60;;
65665;SDS011;52365;47.464;18.976;2023-08-08T00:37:37;0.70;;;0.47;;
65665;SDS011;52365;47.464;18.976;2023-08-08T00:37:58;1.08;;;0.47;;
65665;SDS011;52365;47.464;18.976;2023-08-08T00:38:19;0.80;;;0.40;;
65665;SDS011;52365;47.464;18.976;2023-08-08T00:38:40;1.35;;;0.50;;
65665;SDS011;52365;47.464;18.976;2023-08-08T00:39:01;1.15;;;0.50;;
65665;SDS011;52365;47.464;18.976;2023-08-08T00:39:22;1.27;;;0.50;;
65665;SDS011;52365;47.464;18.976;2023-08-08T00:39:43;1.85;;;0.52;;
65665;SDS011;52365;47.464;18.976;2023-08-08T00:40:06;1.60;;;0.43;;
65665;SDS011;52365;47.464;18.976;2023-08-08T00:40:28;0.98;;;0.50;;
65665;SDS011;52365;47.464;18.976;2023-08-08T00:40:49;0.85;;;0.50;;
65665;SDS011;52365;47.464;18.976;2023-08-08T00:41:10;0.68;;;0.40;;
65665;SDS011;52365;47.464;18.976;2023-08-08T00:41:31;0.93;;;0.50;;
65665;SDS011;52365;47.464;18.976;2023-08-08T00:41:52;1.35;;;0.52;;
65665;SDS011;52365;47.464;18.976;2023-08-08T00:42:13;1.20;;;0.50;;
65665;SDS011;52365;47.464;18.976;2023-08-08T00:42:34;1.47;;;0.53;;
65665;SDS011;52365;47.464;18.976;2023-08-08T00:42:55;3.47;;;0.50;;
65665;SDS011;52365;47.464;18.976;2023-08-08T00:43:16;1.00;;;0.35;;
65665;SDS011;52365;47.464;18.976;2023-08-08T00:43:37;1.33;;;0.57;;
65665;SDS011;52365;47.464;18.976;2023-08-08T00:43:58;1.25;;;0.60;;
65665;SDS011;52365;47.464;18.976;2023-08-08T00:44:14;0.95;;;0.50;;
65665;SDS011;52365;47.464;18.976;2023-08-08T00:44:34;1.52;;;0.50;;
65665;SDS011;52365;47.464;18.976;2023-08-08T00:44:57;1.10;;;0.50;;
65665;SDS011;52365;47.464;18.976;2023-08-08T00:45:24;1.15;;;0.40;;
65665;SDS011;52365;47.464;18.976;2023-08-08T00:45:45;1.60;;;0.50;;
65665;SDS011;52365;47.464;18.976;2023-08-08T00:46:06;0.90;;;0.50;;
65665;SDS011;52365;47.464;18.976;2023-08-08T00:46:27;0.90;;;0.60;;
65665;SDS011;52365;47.464;18.976;2023-08-08T00:46:48;1.08;;;0.60;;
65665;SDS011;52365;47.464;18.976;2023-08-08T00:47:10;0.73;;;0.50;;
65665;SDS011;52365;47.464;18.976;2023-08-08T00:47:32;2.30;;;0.50;;
65665;SDS011;52365;47.464;18.976;2023-08-08T00:47:54;2.55;;;0.70;;
65665;SDS011;52365;47.464;18.976;2023-08-08T00:48:15;2.12;;;0.80;;
65665;SDS011;52365;47.464;18.976;2023-08-08T00:48:38;1.60;;;0.50;;
65665;SDS011;52365;47.464;18.976;2023-08-08T00:48:59;1.00;;;0.50;;
65665;SDS011;52365;47.464;18.976;2023-08-08T00:49:20;0.80;;;0.50;;
65665;SDS011;52365;47.464;18.976;2023-08-08T00:49:41;0.98;;;0.50;;
65665;SDS011;52365;47.464;18.976;2023-08-08T00:50:04;1.02;;;0.60;;
65665;SDS011;52365;47.464;18.976;2023-08-08T00:50:26;1.08;;;0.50;;
65665;SDS011;52365;47.464;18.976;2023-08-08T00:50:48;1.27;;;0.55;;
65665;SDS011;52365;47.464;18.976;2023-08-08T00:51:10;1.60;;;0.62;;
65665;SDS011;52365;47.464;18.976;2023-08-08T00:51:31;1.37;;;0.57;;
65665;SDS011;52365;47.464;18.976;2023-08-08T00:51:52;0.95;;;0.50;;
65665;SDS011;52365;47.464;18.976;2023-08-08T00:52:13;1.45;;;0.60;;
65665;SDS011;52365;47.464;18.976;2023-08-08T00:52:35;1.00;;;0.60;;
65665;SDS011;52365;47.464;18.976;2023-08-08T00:52:56;1.30;;;0.60;;
65665;SDS011;52365;47.464;18.976;2023-08-08T00:53:18;0.90;;;0.43;;
65665;SDS011;52365;47.464;18.976;2023-08-08T00:53:40;1.20;;;0.50;;
65665;SDS011;52365;47.464;18.976;2023-08-08T00:54:01;1.58;;;0.50;;
65665;SDS011;52365;47.464;18.976;2023-08-08T00:54:23;1.08;;;0.47;;
65665;SDS011;52365;47.464;18.976;2023-08-08T00:54:44;0.77;;;0.43;;
65665;SDS011;52365;47.464;18.976;2023-08-08T00:55:05;0.80;;;0.50;;
65665;SDS011;52365;47.464;18.976;2023-08-08T00:55:22;0.70;;;0.50;;
65665;SDS011;52365;47.464;18.976;2023-08-08T00:55:43;1.00;;;0.60;;
65665;SDS011;52365;47.464;18.976;2023-08-08T00:56:04;1.08;;;0.60;;
65665;SDS011;52365;47.464;18.976;2023-08-08T00:56:26;1.60;;;0.55;;
65665;SDS011;52365;47.464;18.976;2023-08-08T00:56:47;1.42;;;0.60;;
65665;SDS011;52365;47.464;18.976;2023-08-08T00:57:08;1.10;;;0.60;;
65665;SDS011;52365;47.464;18.976;2023-08-08T00:57:29;0.90;;;0.60;;
65665;SDS011;52365;47.464;18.976;2023-08-08T00:57:50;0.80;;;0.50;;
65665;SDS011;52365;47.464;18.976;2023-08-08T00:58:12;0.90;;;0.50;;
65665;SDS011;52365;47.464;18.976;2023-08-08T00:58:34;0.90;;;0.50;;
65665;SDS011;52365;47.464;18.976;2023-08-08T00:58:55;1.17;;;0.60;;
65665;SDS011;52365;47.464;18.976;2023-08-08T00:59:16;0.95;;;0.52;;
65665;SDS011;52365;47.464;18.976;2023-08-08T00:59:39;1.33;;;0.60;;
65665;SDS011;52365;47.464;18.976;2023-08-08T01:00:00;1.23;;;0.60;;
65665;SDS011;52365;47.464;18.976;2023-08-08T01:00:21;0.70;;;0.50;;
65665;SDS011;52365;47.464;18.976;2023-08-08T01:00:42;0.88;;;0.50;;
65665;SDS011;52365;47.464;18.976;2023-08-08T01:01:03;1.00;;;0.60;;
65665;SDS011;52365;47.464;18.976;2023-08-08T01:01:24;1.37;;;0.60;;
65665;SDS011;52365;47.464;18.976;2023-08-08T01:01:45;1.10;;;0.65;;
65665;SDS011;52365;47.464;18.976;2023-08-08T01:02:06;1.15;;;0.50;;
65665;SDS011;52365;47.464;18.976;2023-08-08T01:02:27;1.12;;;0.50;;
65665;SDS011;52365;47.464;18.976;2023-08-08T01:02:48;1.42;;;0.60;;
65665;SDS011;52365;47.464;18.976;2023-08-08T01:03:09;1.02;;;0.60;;
65665;SDS011;52365;47.464;18.976;2023-08-08T01:03:30;1.20;;;0.50;;
65665;SDS011;52365;47.464;18.976;2023-08-08T01:03:51;1.65;;;0.65;;
65665;SDS011;52365;47.464;18.976;2023-08-08T01:04:13;3.22;;;0.70;;
65665;SDS011;52365;47.464;18.976;2023-08-08T01:04:35;1.00;;;0.50;;
65665;SDS011;52365;47.464;18.976;2023-08-08T01:04:56;0.85;;;0.55;;
65665;SDS011;52365;47.464;18.976;2023-08-08T01:05:17;1.05;;;0.70;;
65665;SDS011;52365;47.464;18.976;2023-08-08T01:05:41;1.10;;;0.68;;
65665;SDS011;52365;47.464;18.976;2023-08-08T01:08:04;2.92;;;0.60;;
65665;SDS011;52365;47.464;18.976;2023-08-08T01:08:35;1.12;;;0.60;;
65665;SDS011;52365;47.464;18.976;2023-08-08T01:10:42;1.52;;;0.60;;
65665;SDS011;52365;47.464;18.976;2023-08-08T01:10:48;1.48;;;0.60;;
65665;SDS011;52365;47.464;18.976;2023-08-08T01:11:10;1.40;;;0.68;;
65665;SDS011;52365;47.464;18.976;2023-08-08T01:11:32;2.10;;;0.70;;
65665;SDS011;52365;47.464;18.976;2023-08-08T01:11:55;2.08;;;0.80;;
65665;SDS011;52365;47.464;18.976;2023-08-08T01:12:17;1.33;;;0.70;;
65665;SDS011;52365;47.464;18.976;2023-08-08T01:12:39;1.10;;;0.70;;
65665;SDS011;52365;47.464;18.976;2023-08-08T01:13:04;1.20;;;0.62;;
65665;SDS011;52365;47.464;18.976;2023-08-08T01:13:29;0.85;;;0.50;;
65665;SDS011;52365;47.464;18.976;2023-08-08T01:13:52;1.17;;;0.60;;
65665;SDS011;52365;47.464;18.976;2023-08-08T01:14:15;2.90;;;0.70;;
65665;SDS011;52365;47.464;18.976;2023-08-08T01:14:38;1.30;;;0.60;;
65665;SDS011;52365;47.464;18.976;2023-08-08T01:15:01;1.55;;;0.68;;
65665;SDS011;52365;47.464;18.976;2023-08-08T01:15:22;0.98;;;0.60;;
65665;SDS011;52365;47.464;18.976;2023-08-08T01:15:44;0.93;;;0.60;;
65665;SDS011;52365;47.464;18.976;2023-08-08T01:16:07;1.73;;;0.70;;
65665;SDS011;52365;47.464;18.976;2023-08-08T01:16:28;1.35;;;0.60;;
65665;SDS011;52365;47.464;18.976;2023-08-08T01:16:50;2.10;;;0.68;;
65665;SDS011;52365;47.464;18.976;2023-08-08T01:17:13;2.20;;;0.70;;
65665;SDS011;52365;47.464;18.976;2023-08-08T01:17:35;1.25;;;0.60;;
65665;SDS011;52365;47.464;18.976;2023-08-08T01:17:57;2.45;;;0.62;;
65665;SDS011;52365;47.464;18.976;2023-08-08T01:18:19;1.33;;;0.70;;
65665;SDS011;52365;47.464;18.976;2023-08-08T01:18:40;1.67;;;0.60;;
65665;SDS011;52365;47.464;18.976;2023-08-08T01:19:01;2.53;;;0.55;;
65665;SDS011;52365;47.464;18.976;2023-08-08T01:19:30;2.15;;;0.70;;
65665;SDS011;52365;47.464;18.976;2023-08-08T01:19:53;1.75;;;0.73;;
65665;SDS011;52365;47.464;18.976;2023-08-08T01:20:14;2.08;;;0.93;;
65665;SDS011;52365;47.464;18.976;2023-08-08T01:20:37;1.52;;;0.80;;
65665;SDS011;52365;47.464;18.976;2023-08-08T01:20:59;2.78;;;0.80;;
65665;SDS011;52365;47.464;18.976;2023-08-08T01:21:21;1.45;;;0.70;;
65665;SDS011;52365;47.464;18.976;2023-08-08T01:21:43;2.03;;;0.60;;
65665;SDS011;52365;47.464;18.976;2023-08-08T01:22:09;1.42;;;0.80;;
65665;SDS011;52365;47.464;18.976;2023-08-08T01:23:42;1.33;;;0.62;;
65665;SDS011;52365;47.464;18.976;2023-08-08T01:24:15;1.70;;;0.70;;
65665;SDS011;52365;47.464;18.976;2023-08-08T01:24:36;2.17;;;0.80;;
65665;SDS011;52365;47.464;18.976;2023-08-08T01:24:58;1.30;;;0.60;;
65665;SDS011;52365;47.464;18.976;2023-08-08T01:25:20;1.17;;;0.60;;
65665;SDS011;52365;47.464;18.976;2023-08-08T01:25:37;1.80;;;0.60;;
65665;SDS011;52365;47.464;18.976;2023-08-08T01:26:00;1.75;;;0.77;;
65665;SDS011;52365;47.464;18.976;2023-08-08T01:26:22;1.67;;;0.70;;
65665;SDS011;52365;47.464;18.976;2023-08-08T01:26:44;1.52;;;0.60;;
65665;SDS011;52365;47.464;18.976;2023-08-08T01:27:06;1.33;;;0.70;;
65665;SDS011;52365;47.464;18.976;2023-08-08T01:27:27;1.50;;;0.65;;
65665;SDS011;52365;47.464;18.976;2023-08-08T01:27:48;1.37;;;0.60;;
65665;SDS011;52365;47.464;18.976;2023-08-08T01:28:10;1.73;;;0.70;;
65665;SDS011;52365;47.464;18.976;2023-08-08T01:28:31;1.87;;;0.80;;
65665;SDS011;52365;47.464;18.976;2023-08-08T01:28:53;1.65;;;0.65;;
65665;SDS011;52365;47.464;18.976;2023-08-08T01:29:15;2.40;;;0.60;;
65665;SDS011;52365;47.464;18.976;2023-08-08T01:29:36;1.60;;;0.65;;
65665;SDS011;52365;47.464;18.976;2023-08-08T01:29:58;1.50;;;0.75;;
65665;SDS011;52365;47.464;18.976;2023-08-08T01:30:19;1.50;;;0.70;;
65665;SDS011;52365;47.464;18.976;2023-08-08T01:30:40;1.27;;;0.70;;
65665;SDS011;52365;47.464;18.976;2023-08-08T01:31:01;2.25;;;0.80;;
65665;SDS011;52365;47.464;18.976;2023-08-08T01:31:22;1.45;;;0.77;;
65665;SDS011;52365;47.464;18.976;2023-08-08T01:31:43;1.73;;;0.80;;
65665;SDS011;52365;47.464;18.976;2023-08-08T01:32:04;1.70;;;0.70;;
65665;SDS011;52365;47.464;18.976;2023-08-08T01:32:25;1.30;;;0.73;;
65665;SDS011;52365;47.464;18.976;2023-08-08T01:32:46;1.20;;;0.70;;
65665;SDS011;52365;47.464;18.976;2023-08-08T01:33:07;1.08;;;0.70;;
65665;SDS011;52365;47.464;18.976;2023-08-08T01:33:28;1.08;;;0.60;;
65665;SDS011;52365;47.464;18.976;2023-08-08T01:33:49;1.30;;;0.80;;
65665;SDS011;52365;47.464;18.976;2023-08-08T01:34:10;1.33;;;0.70;;
65665;SDS011;52365;47.464;18.976;2023-08-08T01:34:32;1.10;;;0.60;;
65665;SDS011;52365;47.464;18.976;2023-08-08T01:34:53;2.00;;;0.70;;
65665;SDS011;52365;47.464;18.976;2023-08-08T01:35:14;2.05;;;0.80;;
65665;SDS011;52365;47.464;18.976;2023-08-08T01:35:37;1.85;;;0.80;;
65665;SDS011;52365;47.464;18.976;2023-08-08T01:36:02;2.00;;;0.80;;
65665;SDS011;52365;47.464;18.976;2023-08-08T01:36:32;2.10;;;0.75;;
65665;SDS011;52365;47.464;18.976;2023-08-08T01:37:09;1.48;;;0.75;;
65665;SDS011;52365;47.464;18.976;2023-08-08T01:37:50;2.58;;;0.82;;
65665;SDS011;52365;47.464;18.976;2023-08-08T01:38:19;2.45;;;0.80;;
65665;SDS011;52365;47.464;18.976;2023-08-08T01:38:43;1.20;;;0.70;;
65665;SDS011;52365;47.464;18.976;2023-08-08T01:39:08;2.20;;;0.80;;
65665;SDS011;52365;47.464;18.976;2023-08-08T01:39:34;2.17;;;0.75;;
65665;SDS011;52365;47.464;18.976;2023-08-08T01:39:59;2.17;;;0.70;;
65665;SDS011;52365;47.464;18.976;2023-08-08T01:40:22;1.50;;;0.65;;
65665;SDS011;52365;47.464;18.976;2023-08-08T01:40:45;1.13;;;0.70;;
65665;SDS011;52365;47.464;18.976;2023-08-08T01:41:06;1.48;;;0.70;;
65665;SDS011;52365;47.464;18.976;2023-08-08T01:41:29;3.28;;;0.80;;
65665;SDS011;52365;47.464;18.976;2023-08-08T01:41:54;2.10;;;0.90;;
65665;SDS011;52365;47.464;18.976;2023-08-08T01:42:15;1.73;;;0.80;;
65665;SDS011;52365;47.464;18.976;2023-08-08T01:42:41;1.98;;;0.70;;
65665;SDS011;52365;47.464;18.976;2023-08-08T01:43:05;1.10;;;0.73;;
65665;SDS011;52365;47.464;18.976;2023-08-08T01:43:27;1.10;;;0.70;;
65665;SDS011;52365;47.464;18.976;2023-08-08T01:43:50;1.08;;;0.70;;
65665;SDS011;52365;47.464;18.976;2023-08-08T01:44:11;1.45;;;0.80;;
65665;SDS011;52365;47.464;18.976;2023-08-08T01:44:33;1.20;;;0.70;;
65665;SDS011;52365;47.464;18.976;2023-08-08T01:44:55;1.23;;;0.70;;
65665;SDS011;52365;47.464;18.976;2023-08-08T01:45:17;1.60;;;0.60;;
65665;SDS011;52365;47.464;18.976;2023-08-08T01:45:39;1.67;;;0.70;;
65665;SDS011;52365;47.464;18.976;2023-08-08T01:46:00;1.50;;;0.80;;
65665;SDS011;52365;47.464;18.976;2023-08-08T01:46:23;1.50;;;0.80;;
65665;SDS011;52365;47.464;18.976;2023-08-08T01:46:45;2.03;;;0.93;;
65665;SDS011;52365;47.464;18.976;2023-08-08T01:47:07;2.05;;;0.90;;
65665;SDS011;52365;47.464;18.976;2023-08-08T01:47:28;1.58;;;0.80;;
65665;SDS011;52365;47.464;18.976;2023-08-08T01:47:50;1.60;;;0.70;;
65665;SDS011;52365;47.464;18.976;2023-08-08T01:48:12;1.85;;;0.80;;
65665;SDS011;52365;47.464;18.976;2023-08-08T01:48:33;1.58;;;0.70;;
65665;SDS011;52365;47.464;18.976;2023-08-08T01:48:54;0.90;;;0.60;;
65665;SDS011;52365;47.464;18.976;2023-08-08T01:49:15;1.23;;;0.70;;
65665;SDS011;52365;47.464;18.976;2023-08-08T01:49:36;1.23;;;0.70;;
65665;SDS011;52365;47.464;18.976;2023-08-08T01:49:57;1.10;;;0.70;;
65665;SDS011;52365;47.464;18.976;2023-08-08T01:50:18;2.10;;;0.85;;
65665;SDS011;52365;47.464;18.976;2023-08-08T01:50:39;2.40;;;1.00;;
65665;SDS011;52365;47.464;18.976;2023-08-08T01:51:00;1.70;;;0.80;;
65665;SDS011;52365;47.464;18.976;2023-08-08T01:51:21;1.73;;;0.70;;
65665;SDS011;52365;47.464;18.976;2023-08-08T01:51:44;2.00;;;0.73;;
65665;SDS011;52365;47.464;18.976;2023-08-08T01:52:06;1.10;;;0.70;;
65665;SDS011;52365;47.464;18.976;2023-08-08T01:52:27;1.90;;;0.70;;
65665;SDS011;52365;47.464;18.976;2023-08-08T01:52:48;1.27;;;0.80;;
65665;SDS011;52365;47.464;18.976;2023-08-08T01:53:09;1.40;;;0.70;;
65665;SDS011;52365;47.464;18.976;2023-08-08T01:53:30;1.37;;;0.75;;
65665;SDS011;52365;47.464;18.976;2023-08-08T01:53:52;1.40;;;0.70;;
65665;SDS011;52365;47.464;18.976;2023-08-08T01:54:13;1.60;;;0.70;;
65665;SDS011;52365;47.464;18.976;2023-08-08T01:54:34;1.50;;;0.60;;
65665;SDS011;52365;47.464;18.976;2023-08-08T01:54:55;2.15;;;0.77;;
65665;SDS011;52365;47.464;18.976;2023-08-08T01:55:16;1.35;;;0.77;;
65665;SDS011;52365;47.464;18.976;2023-08-08T01:55:38;1.37;;;0.70;;
65665;SDS011;52365;47.464;18.976;2023-08-08T01:55:59;1.73;;;0.60;;
65665;SDS011;52365;47.464;18.976;2023-08-08T01:56:20;2.22;;;0.80;;
65665;SDS011;52365;47.464;18.976;2023-08-08T01:56:41;1.77;;;0.73;;
65665;SDS011;52365;47.464;18.976;2023-08-08T01:57:02;1.05;;;0.60;;
65665;SDS011;52365;47.464;18.976;2023-08-08T01:57:23;1.77;;;0.80;;
65665;SDS011;52365;47.464;18.976;2023-08-08T01:57:44;1.98;;;0.70;;
65665;SDS011;52365;47.464;18.976;2023-08-08T01:58:05;1.62;;;0.80;;
65665;SDS011;52365;47.464;18.976;2023-08-08T01:58:27;1.98;;;0.80;;
65665;SDS011;52365;47.464;18.976;2023-08-08T01:58:48;2.08;;;0.70;;
65665;SDS011;52365;47.464;18.976;2023-08-08T01:59:09;2.28;;;0.80;;
65665;SDS011;52365;47.464;18.976;2023-08-08T01:59:30;1.23;;;0.70;;
65665;SDS011;52365;47.464;18.976;2023-08-08T01:59:51;1.15;;;0.70;;
65665;SDS011;52365;47.464;18.976;2023-08-08T02:00:12;1.20;;;0.70;;
65665;SDS011;52365;47.464;18.976;2023-08-08T02:00:33;1.62;;;0.77;;
65665;SDS011;52365;47.464;18.976;2023-08-08T02:00:54;1.75;;;0.90;;
65665;SDS011;52365;47.464;18.976;2023-08-08T02:01:15;1.90;;;0.73;;
65665;SDS011;52365;47.464;18.976;2023-08-08T02:01:36;1.20;;;0.70;;
65665;SDS011;52365;47.464;18.976;2023-08-08T02:01:57;1.08;;;0.75;;
65665;SDS011;52365;47.464;18.976;2023-08-08T02:02:18;2.00;;;0.90;;
65665;SDS011;52365;47.464;18.976;2023-08-08T02:02:39;1.77;;;0.90;;
65665;SDS011;52365;47.464;18.976;2023-08-08T02:03:00;1.58;;;0.80;;
65665;SDS011;52365;47.464;18.976;2023-08-08T02:03:21;2.15;;;0.70;;
65665;SDS011;52365;47.464;18.976;2023-08-08T02:03:42;2.28;;;0.73;;
65665;SDS011;52365;47.464;18.976;2023-08-08T02:04:03;1.50;;;0.70;;
65665;SDS011;52365;47.464;18.976;2023-08-08T02:04:24;1.40;;;0.70;;
65665;SDS011;52365;47.464;18.976;2023-08-08T02:04:45;1.10;;;0.60;;
65665;SDS011;52365;47.464;18.976;2023-08-08T02:05:06;1.40;;;0.65;;
65665;SDS011;52365;47.464;18.976;2023-08-08T02:05:28;2.50;;;0.70;;
65665;SDS011;52365;47.464;18.976;2023-08-08T02:05:48;1.50;;;0.70;;
65665;SDS011;52365;47.464;18.976;2023-08-08T02:06:10;1.75;;;0.70;;
65665;SDS011;52365;47.464;18.976;2023-08-08T02:06:31;1.75;;;0.70;;
65665;SDS011;52365;47.464;18.976;2023-08-08T02:06:52;1.60;;;0.80;;
65665;SDS011;52365;47.464;18.976;2023-08-08T02:07:13;0.90;;;0.70;;
65665;SDS011;52365;47.464;18.976;2023-08-08T02:07:34;1.00;;;0.60;;
65665;SDS011;52365;47.464;18.976;2023-08-08T02:07:55;1.10;;;0.60;;
65665;SDS011;52365;47.464;18.976;2023-08-08T02:08:16;2.60;;;0.80;;
65665;SDS011;52365;47.464;18.976;2023-08-08T02:08:38;1.60;;;0.80;;
65665;SDS011;52365;47.464;18.976;2023-08-08T02:08:59;1.15;;;0.80;;
65665;SDS011;52365;47.464;18.976;2023-08-08T02:09:20;1.35;;;0.82;;
65665;SDS011;52365;47.464;18.976;2023-08-08T02:09:41;1.65;;;0.90;;
65665;SDS011;52365;47.464;18.976;2023-08-08T02:10:02;1.45;;;0.90;;
65665;SDS011;52365;47.464;18.976;2023-08-08T02:10:23;1.25;;;0.70;;
65665;SDS011;52365;47.464;18.976;2023-08-08T02:10:44;1.70;;;0.90;;
65665;SDS011;52365;47.464;18.976;2023-08-08T02:11:05;1.80;;;0.80;;
65665;SDS011;52365;47.464;18.976;2023-08-08T02:11:26;1.33;;;0.80;;
65665;SDS011;52365;47.464;18.976;2023-08-08T02:11:47;1.62;;;0.90;;
65665;SDS011;52365;47.464;18.976;2023-08-08T02:12:08;1.73;;;0.80;;
65665;SDS011;52365;47.464;18.976;2023-08-08T02:12:30;1.70;;;0.80;;
65665;SDS011;52365;47.464;18.976;2023-08-08T02:12:51;1.20;;;0.80;;